Differdange, Luxembourg
Current Conditions -  °F | °C
As of 2:20 PM on Tuesday 21 Oct 2014 (Local Time) from ELLX Reporting Station
Light Rain Light Rain  
Wind Chill: 52°   Ceiling: 600
Heat Index: 52°   Visibility: 1.8mi
Dew Point: 52°   Wind: 15mph
Humidity: 100%   Direction: 220°SW
Pressure: 29.71"   Gusts: NA
Location:  49.52°N, 5.89°E
Report Text: ELLX 211220Z 22013KT 180V250 3000 -RA BR FEW004 BKN006 11/11 Q1006 NOSIG
Loading
Personal Weather Stations






























Interactive Weather Map
Tropical Storm Tracking
New forecast layout! Learn more

10-Day Weather Forecast

Advertisements
Track Severe Weather on mobile